MSC Opera — H3FV — position and weather

sailwx.info

Track history (hours):
 
Tides and Currents Weather Stations Pressure Air Temp Water Temp Dewpoint Dewpoint Depression Visibility Wind Speed Wind Dir Waves Ship Positions

MSC Opera

Operator: Mediterranean Shipping Company

Last reported at 2019-Jul-15 00:17 UTC. Time now 2019-Jul-16 10:54 UTC.
Position N 44°26' E 013°43'.

Length 275 m; draft 6.8 m.

Type: Passenger vessel. MMSI: 357627000.

Date/timePositionNaut miles runAvg speedWind from/ knotsBaromVisibWave heightAir tempDewpointWater temp
2019-Jul-15 00:17N 44°26' E 013°43'620.5
2019-Jul-15 00:00N 44°31' E 013°39'1020.1
2019-Jul-14 23:31N 44°39' E 013°32'1020.4
2019-Jul-14 23:01N 44°48' E 013°24'1020.5
2019-Jul-14 22:30N 44°56' E 013°16'1020.5
2019-Jul-14 22:00N 45°03' E 013°05'1020.3
2019-Jul-14 21:30N 45°09' E 012°54'1020.3
2019-Jul-14 21:01N 45°16' E 012°43'1019.7
2019-Jul-14 20:31N 45°22' E 012°32'611.9
2019-Jul-14 20:01N 45°26' E 012°25'3 5.1
2019-Jul-14 19:30N 45°26' E 012°21'2 4.3
2019-Jul-14 19:01N 45°26' E 012°18'0 0.5
2019-Jul-14 18:30N 45°26' E 012°18'0 0.0
2019-Jul-14 18:00N 45°26' E 012°18'0 0.0
2019-Jul-14 17:26N 45°26' E 012°18'0 0.0
2019-Jul-14 16:55N 45°26' E 012°18'0 0.0
2019-Jul-14 16:25N 45°26' E 012°18'0 0.0
2019-Jul-14 15:58N 45°26' E 012°18'0 0.0
2019-Jul-14 15:28N 45°26' E 012°18'0 0.0
2019-Jul-14 14:52N 45°26' E 012°18'0 0.0
2019-Jul-14 14:26N 45°26' E 012°18'0 0.0
2019-Jul-14 13:55N 45°26' E 012°18'0 0.0
2019-Jul-14 13:25N 45°26' E 012°18'0 0.0
2019-Jul-14 12:55N 45°26' E 012°18'0 0.0
2019-Jul-14 12:25N 45°26' E 012°18'0 0.0
2019-Jul-14 12:00N 45°26' E 012°18'0 0.0
2019-Jul-14 11:30N 45°26' E 012°18'0 0.0
2019-Jul-14 11:00N 45°26' E 012°18'0 0.0
2019-Jul-14 10:30N 45°26' E 012°18'0 0.0
2019-Jul-14 09:51N 45°26' E 012°18'0 0.0
2019-Jul-14 09:29N 45°26' E 012°18'0 0.0
2019-Jul-14 08:59N 45°26' E 012°18'0 0.0
2019-Jul-14 08:29N 45°26' E 012°18'0 0.0
2019-Jul-14 08:00N 45°26' E 012°18'1 1.7
2019-Jul-14 07:30N 45°26' E 012°19'2 4.3
2019-Jul-14 07:00N 45°25' E 012°22'3 5.9
2019-Jul-14 06:30N 45°25' E 012°27'5 9.4
2019-Jul-14 06:00N 45°22' E 012°32'713.4
2019-Jul-14 05:30N 45°19' E 012°40'815.8
2019-Jul-14 05:00N 45°14' E 012°49'816.1
2019-Jul-14 04:30N 45°08' E 012°57'816.2
2019-Jul-14 04:00N 45°04' E 013°07'816.6
2019-Jul-14 03:30N 44°59' E 013°16'917.8
2019-Jul-14 03:00N 44°53' E 013°26'918.2
2019-Jul-14 02:30N 44°45' E 013°33'918.1
2019-Jul-14 02:00N 44°38' E 013°40'917.9
2019-Jul-14 01:30N 44°30' E 013°46'918.1
2019-Jul-14 01:00N 44°23' E 013°53'917.9
2019-Jul-14 00:30N 44°15' E 014°00'  
2019-Jul-11 00:07N 37°06' E 024°57'217.2
2019-Jul-11 00:01N 37°07' E 024°58'917.3
2019-Jul-10 23:30N 37°15' E 025°02'917.3
2019-Jul-10 23:00N 37°22' E 025°08'815.5
2019-Jul-10 22:30N 37°28' E 025°15'3 6.0
2019-Jul-10 21:56N 37°28' E 025°19'0 0.0
2019-Jul-10 21:26N 37°28' E 025°19'0 0.1
2019-Jul-10 20:55N 37°28' E 025°19'0 0.0
2019-Jul-10 20:28N 37°28' E 025°19'0 0.0
2019-Jul-10 19:57N 37°28' E 025°19'0 0.0
2019-Jul-10 19:25N 37°28' E 025°19'0 0.0
2019-Jul-10 18:58N 37°28' E 025°19'0 0.0
2019-Jul-10 18:24N 37°28' E 025°19'0 0.0
2019-Jul-10 17:57N 37°28' E 025°19'0 0.0
2019-Jul-10 17:27N 37°28' E 025°19'0 0.0
2019-Jul-10 16:57N 37°28' E 025°19'0 0.1
2019-Jul-10 16:27N 37°28' E 025°19'0 0.1
2019-Jul-10 15:59N 37°28' E 025°19'0 0.1
2019-Jul-10 15:29N 37°28' E 025°19'0 0.0
2019-Jul-10 14:59N 37°28' E 025°19'0 0.0
2019-Jul-10 14:29N 37°28' E 025°19'0 0.1
2019-Jul-10 13:58N 37°28' E 025°19'0 0.0
2019-Jul-10 13:28N 37°28' E 025°19'0 0.0
2019-Jul-10 12:55N 37°28' E 025°19'0 0.1
2019-Jul-10 12:19N 37°28' E 025°19'0 0.0
2019-Jul-10 11:52N 37°28' E 025°19'0 0.0
2019-Jul-10 11:27N 37°28' E 025°19'0 0.1
2019-Jul-10 11:00N 37°28' E 025°19'0 0.0
2019-Jul-10 10:27N 37°28' E 025°19'0 0.1
2019-Jul-10 10:00N 37°28' E 025°19'0 0.1
2019-Jul-10 09:30N 37°28' E 025°19'0 0.2
2019-Jul-10 08:59N 37°28' E 025°19'0 0.1
2019-Jul-10 08:29N 37°28' E 025°19'0 0.0
2019-Jul-10 07:59N 37°28' E 025°19'0 0.1
2019-Jul-10 07:29N 37°28' E 025°19'0 0.1
2019-Jul-10 06:58N 37°28' E 025°19'0 0.2
2019-Jul-10 06:28N 37°28' E 025°19'0 0.0
2019-Jul-10 05:55N 37°28' E 025°19'0 0.0
2019-Jul-10 05:28N 37°28' E 025°19'0 0.3
2019-Jul-10 05:00N 37°28' E 025°19'2 4.4
2019-Jul-10 04:31N 37°27' E 025°16'611.1
2019-Jul-10 04:01N 37°26' E 025°10'815.6
2019-Jul-10 03:29N 37°19' E 025°04'817.5
2019-Jul-10 03:01N 37°15' E 024°56'4717.7
2019-Jul-10 00:20N 36°48' E 024°06'617.8
2019-Jul-10 00:00N 36°45' E 023°60'918.0
2019-Jul-09 23:31N 36°41' E 023°50'917.7
2019-Jul-09 23:00N 36°37' E 023°40'917.7
2019-Jul-09 22:30N 36°32' E 023°31'917.6
2019-Jul-09 22:00N 36°27' E 023°22'917.1
2019-Jul-09 21:30N 36°22' E 023°13'62213.1
2019-Jul-07 22:11N 44°02' E 014°05'319.6
2019-Jul-07 22:00N 44°05' E 014°03'1019.4
2019-Jul-07 21:31N 44°13' E 013°55'1019.5
2019-Jul-07 21:00N 44°21' E 013°48'1019.6
2019-Jul-07 20:30N 44°30' E 013°40'1019.8
2019-Jul-07 20:00N 44°38' E 013°33'1020.0
2019-Jul-07 19:31N 44°46' E 013°25'816.0
2019-Jul-07 19:00N 44°53' E 013°19'714.8
2019-Jul-07 18:30N 44°58' E 013°12'918.2
2019-Jul-07 18:00N 45°04' E 013°02'918.5
2019-Jul-07 17:30N 45°10' E 012°52'918.8
2019-Jul-07 17:01N 45°16' E 012°42'917.4
2019-Jul-07 16:30N 45°22' E 012°32'612.1
2019-Jul-07 16:00N 45°25' E 012°25'3 5.1
2019-Jul-07 15:31N 45°25' E 012°22'2 4.3
2019-Jul-07 15:00N 45°26' E 012°19'1 0.9
2019-Jul-07 14:27N 45°26' E 012°18'0 0.0
2019-Jul-07 13:56N 45°26' E 012°18'0 0.0
2019-Jul-07 13:29N 45°26' E 012°18'0 0.0
2019-Jul-07 12:50N 45°26' E 012°18'0 0.0
2019-Jul-07 12:20N 45°26' E 012°18'0 0.0
2019-Jul-07 11:58N 45°26' E 012°18'0 0.0
2019-Jul-07 11:25N 45°26' E 012°18'0 0.0
2019-Jul-07 10:58N 45°26' E 012°18'0 0.0
2019-Jul-07 10:28N 45°26' E 012°18'0 0.0
2019-Jul-07 09:55N 45°26' E 012°18'0 0.0
2019-Jul-07 09:24N 45°26' E 012°18'0 0.0
2019-Jul-07 09:00N 45°26' E 012°18'0 0.0
2019-Jul-07 08:30N 45°26' E 012°18'0 0.0
2019-Jul-07 08:00N 45°26' E 012°18'0 0.0
2019-Jul-07 07:26N 45°26' E 012°18'0 0.0
2019-Jul-07 07:01N 45°26' E 012°18'1 1.8
2019-Jul-07 06:30N 45°26' E 012°19'2 4.2
2019-Jul-07 06:01N 45°25' E 012°22'3 5.8
2019-Jul-07 05:31N 45°25' E 012°26'5 9.7
2019-Jul-07 05:01N 45°22' E 012°32'713.8
2019-Jul-07 04:30N 45°19' E 012°41'715.0
2019-Jul-07 04:00N 45°14' E 012°49'815.1
2019-Jul-07 03:30N 45°09' E 012°57'715.0
2019-Jul-07 03:00N 45°04' E 013°05'1515.4
2019-Jul-07 02:00N 44°56' E 013°23'815.4
2019-Jul-07 01:30N 44°49' E 013°29'917.7
2019-Jul-07 01:00N 44°42' E 013°36'918.4
2019-Jul-07 00:30N 44°34' E 013°43'918.2
2019-Jul-07 00:00N 44°26' E 013°50'918.0
2019-Jul-06 23:30N 44°19' E 013°57'918.0
2019-Jul-06 23:00N 44°12' E 014°04'918.0
2019-Jul-06 22:30N 44°04' E 014°11'918.0
2019-Jul-06 22:00N 43°57' E 014°19'1618.2
2019-Jul-06 21:07N 43°45' E 014°33'218.1
2019-Jul-06 21:00N 43°43' E 014°35'7119.0
2019-Jul-06 17:15N 42°48' E 015°37'  
Track history (hours):
 
Tides and Currents Weather Stations Pressure Air Temp Water Temp Dewpoint Dewpoint Depression Visibility Wind Speed Wind Dir Waves Ship Positions

MSC Opera

Operator: Mediterranean Shipping Company

Last reported at 2019-Jul-15 00:17 UTC. Time now 2019-Jul-16 10:54 UTC.
Position N 44°26' E 013°43'.

Length 275 m; draft 6.8 m.

Type: Passenger vessel. MMSI: 357627000.

Date/timePositionNaut miles runAvg speedWind from/ knotsBaromVisibWave heightAir tempDewpointWater temp
2019-Jul-15 00:17N 44°26' E 013°43'620.5
2019-Jul-15 00:00N 44°31' E 013°39'1020.1
2019-Jul-14 23:31N 44°39' E 013°32'1020.4
2019-Jul-14 23:01N 44°48' E 013°24'1020.5
2019-Jul-14 22:30N 44°56' E 013°16'1020.5
2019-Jul-14 22:00N 45°03' E 013°05'1020.3
2019-Jul-14 21:30N 45°09' E 012°54'1020.3
2019-Jul-14 21:01N 45°16' E 012°43'1019.7
2019-Jul-14 20:31N 45°22' E 012°32'611.9
2019-Jul-14 20:01N 45°26' E 012°25'3 5.1
2019-Jul-14 19:30N 45°26' E 012°21'2 4.3
2019-Jul-14 19:01N 45°26' E 012°18'0 0.5
2019-Jul-14 18:30N 45°26' E 012°18'0 0.0
2019-Jul-14 18:00N 45°26' E 012°18'0 0.0
2019-Jul-14 17:26N 45°26' E 012°18'0 0.0
2019-Jul-14 16:55N 45°26' E 012°18'0 0.0
2019-Jul-14 16:25N 45°26' E 012°18'0 0.0
2019-Jul-14 15:58N 45°26' E 012°18'0 0.0
2019-Jul-14 15:28N 45°26' E 012°18'0 0.0
2019-Jul-14 14:52N 45°26' E 012°18'0 0.0
2019-Jul-14 14:26N 45°26' E 012°18'0 0.0
2019-Jul-14 13:55N 45°26' E 012°18'0 0.0
2019-Jul-14 13:25N 45°26' E 012°18'0 0.0
2019-Jul-14 12:55N 45°26' E 012°18'0 0.0
2019-Jul-14 12:25N 45°26' E 012°18'0 0.0
2019-Jul-14 12:00N 45°26' E 012°18'0 0.0
2019-Jul-14 11:30N 45°26' E 012°18'0 0.0
2019-Jul-14 11:00N 45°26' E 012°18'0 0.0
2019-Jul-14 10:30N 45°26' E 012°18'0 0.0
2019-Jul-14 09:51N 45°26' E 012°18'0 0.0
2019-Jul-14 09:29N 45°26' E 012°18'0 0.0
2019-Jul-14 08:59N 45°26' E 012°18'0 0.0
2019-Jul-14 08:29N 45°26' E 012°18'0 0.0
2019-Jul-14 08:00N 45°26' E 012°18'1 1.7
2019-Jul-14 07:30N 45°26' E 012°19'2 4.3
2019-Jul-14 07:00N 45°25' E 012°22'3 5.9
2019-Jul-14 06:30N 45°25' E 012°27'5 9.4
2019-Jul-14 06:00N 45°22' E 012°32'713.4
2019-Jul-14 05:30N 45°19' E 012°40'815.8
2019-Jul-14 05:00N 45°14' E 012°49'816.1
2019-Jul-14 04:30N 45°08' E 012°57'816.2
2019-Jul-14 04:00N 45°04' E 013°07'816.6
2019-Jul-14 03:30N 44°59' E 013°16'917.8
2019-Jul-14 03:00N 44°53' E 013°26'918.2
2019-Jul-14 02:30N 44°45' E 013°33'918.1
2019-Jul-14 02:00N 44°38' E 013°40'917.9
2019-Jul-14 01:30N 44°30' E 013°46'918.1
2019-Jul-14 01:00N 44°23' E 013°53'917.9
2019-Jul-14 00:30N 44°15' E 014°00'  
2019-Jul-11 00:07N 37°06' E 024°57'217.2
2019-Jul-11 00:01N 37°07' E 024°58'917.3
2019-Jul-10 23:30N 37°15' E 025°02'917.3
2019-Jul-10 23:00N 37°22' E 025°08'815.5
2019-Jul-10 22:30N 37°28' E 025°15'3 6.0
2019-Jul-10 21:56N 37°28' E 025°19'0 0.0
2019-Jul-10 21:26N 37°28' E 025°19'0 0.1
2019-Jul-10 20:55N 37°28' E 025°19'0 0.0
2019-Jul-10 20:28N 37°28' E 025°19'0 0.0
2019-Jul-10 19:57N 37°28' E 025°19'0 0.0
2019-Jul-10 19:25N 37°28' E 025°19'0 0.0
2019-Jul-10 18:58N 37°28' E 025°19'0 0.0
2019-Jul-10 18:24N 37°28' E 025°19'0 0.0
2019-Jul-10 17:57N 37°28' E 025°19'0 0.0
2019-Jul-10 17:27N 37°28' E 025°19'0 0.0
2019-Jul-10 16:57N 37°28' E 025°19'0 0.1
2019-Jul-10 16:27N 37°28' E 025°19'0 0.1
2019-Jul-10 15:59N 37°28' E 025°19'0 0.1
2019-Jul-10 15:29N 37°28' E 025°19'0 0.0
2019-Jul-10 14:59N 37°28' E 025°19'0 0.0
2019-Jul-10 14:29N 37°28' E 025°19'0 0.1
2019-Jul-10 13:58N 37°28' E 025°19'0 0.0
2019-Jul-10 13:28N 37°28' E 025°19'0 0.0
2019-Jul-10 12:55N 37°28' E 025°19'0 0.1
2019-Jul-10 12:19N 37°28' E 025°19'0 0.0
2019-Jul-10 11:52N 37°28' E 025°19'0 0.0
2019-Jul-10 11:27N 37°28' E 025°19'0 0.1
2019-Jul-10 11:00N 37°28' E 025°19'0 0.0
2019-Jul-10 10:27N 37°28' E 025°19'0 0.1
2019-Jul-10 10:00N 37°28' E 025°19'0 0.1
2019-Jul-10 09:30N 37°28' E 025°19'0 0.2
2019-Jul-10 08:59N 37°28' E 025°19'0 0.1
2019-Jul-10 08:29N 37°28' E 025°19'0 0.0
2019-Jul-10 07:59N 37°28' E 025°19'0 0.1
2019-Jul-10 07:29N 37°28' E 025°19'0 0.1
2019-Jul-10 06:58N 37°28' E 025°19'0 0.2
2019-Jul-10 06:28N 37°28' E 025°19'0 0.0
2019-Jul-10 05:55N 37°28' E 025°19'0 0.0
2019-Jul-10 05:28N 37°28' E 025°19'0 0.3
2019-Jul-10 05:00N 37°28' E 025°19'2 4.4
2019-Jul-10 04:31N 37°27' E 025°16'611.1
2019-Jul-10 04:01N 37°26' E 025°10'815.6
2019-Jul-10 03:29N 37°19' E 025°04'817.5
2019-Jul-10 03:01N 37°15' E 024°56'4717.7
2019-Jul-10 00:20N 36°48' E 024°06'617.8
2019-Jul-10 00:00N 36°45' E 023°60'918.0
2019-Jul-09 23:31N 36°41' E 023°50'917.7
2019-Jul-09 23:00N 36°37' E 023°40'917.7
2019-Jul-09 22:30N 36°32' E 023°31'917.6
2019-Jul-09 22:00N 36°27' E 023°22'917.1
2019-Jul-09 21:30N 36°22' E 023°13'62213.1
2019-Jul-07 22:11N 44°02' E 014°05'319.6
2019-Jul-07 22:00N 44°05' E 014°03'1019.4
2019-Jul-07 21:31N 44°13' E 013°55'1019.5
2019-Jul-07 21:00N 44°21' E 013°48'1019.6
2019-Jul-07 20:30N 44°30' E 013°40'1019.8
2019-Jul-07 20:00N 44°38' E 013°33'1020.0
2019-Jul-07 19:31N 44°46' E 013°25'816.0
2019-Jul-07 19:00N 44°53' E 013°19'714.8
2019-Jul-07 18:30N 44°58' E 013°12'918.2
2019-Jul-07 18:00N 45°04' E 013°02'918.5
2019-Jul-07 17:30N 45°10' E 012°52'918.8
2019-Jul-07 17:01N 45°16' E 012°42'917.4
2019-Jul-07 16:30N 45°22' E 012°32'612.1
2019-Jul-07 16:00N 45°25' E 012°25'3 5.1
2019-Jul-07 15:31N 45°25' E 012°22'2 4.3
2019-Jul-07 15:00N 45°26' E 012°19'1 0.9
2019-Jul-07 14:27N 45°26' E 012°18'0 0.0
2019-Jul-07 13:56N 45°26' E 012°18'0 0.0
2019-Jul-07 13:29N 45°26' E 012°18'0 0.0
2019-Jul-07 12:50N 45°26' E 012°18'0 0.0
2019-Jul-07 12:20N 45°26' E 012°18'0 0.0
2019-Jul-07 11:58N 45°26' E 012°18'0 0.0
2019-Jul-07 11:25N 45°26' E 012°18'0 0.0
2019-Jul-07 10:58N 45°26' E 012°18'0 0.0
2019-Jul-07 10:28N 45°26' E 012°18'0 0.0
2019-Jul-07 09:55N 45°26' E 012°18'0 0.0
2019-Jul-07 09:24N 45°26' E 012°18'0 0.0
2019-Jul-07 09:00N 45°26' E 012°18'0 0.0
2019-Jul-07 08:30N 45°26' E 012°18'0 0.0
2019-Jul-07 08:00N 45°26' E 012°18'0 0.0
2019-Jul-07 07:26N 45°26' E 012°18'0 0.0
2019-Jul-07 07:01N 45°26' E 012°18'1 1.8
2019-Jul-07 06:30N 45°26' E 012°19'2 4.2
2019-Jul-07 06:01N 45°25' E 012°22'3 5.8
2019-Jul-07 05:31N 45°25' E 012°26'5 9.7
2019-Jul-07 05:01N 45°22' E 012°32'713.8
2019-Jul-07 04:30N 45°19' E 012°41'715.0
2019-Jul-07 04:00N 45°14' E 012°49'815.1
2019-Jul-07 03:30N 45°09' E 012°57'715.0
2019-Jul-07 03:00N 45°04' E 013°05'1515.4
2019-Jul-07 02:00N 44°56' E 013°23'815.4
2019-Jul-07 01:30N 44°49' E 013°29'917.7
2019-Jul-07 01:00N 44°42' E 013°36'918.4
2019-Jul-07 00:30N 44°34' E 013°43'918.2
2019-Jul-07 00:00N 44°26' E 013°50'918.0
2019-Jul-06 23:30N 44°19' E 013°57'918.0
2019-Jul-06 23:00N 44°12' E 014°04'918.0
2019-Jul-06 22:30N 44°04' E 014°11'918.0
2019-Jul-06 22:00N 43°57' E 014°19'1618.2
2019-Jul-06 21:07N 43°45' E 014°33'218.1
2019-Jul-06 21:00N 43°43' E 014°35'7119.0
2019-Jul-06 17:15N 42°48' E 015°37'  

Dump ship's entire track history